sensor_id;sensor_type;location;lat;lon;timestamp;P1;durP1;ratioP1;P2;durP2;ratioP2
57663;SDS011;43493;53.098;6.064;2023-04-02T00:01:37;10.15;;;3.95;;
57663;SDS011;43493;53.098;6.064;2023-04-02T00:04:04;9.00;;;3.78;;
57663;SDS011;43493;53.098;6.064;2023-04-02T00:06:36;9.48;;;3.80;;
57663;SDS011;43493;53.098;6.064;2023-04-02T00:11:38;8.48;;;3.42;;
57663;SDS011;43493;53.098;6.064;2023-04-02T00:16:45;9.73;;;3.75;;
57663;SDS011;43493;53.098;6.064;2023-04-02T00:19:29;9.10;;;3.30;;
57663;SDS011;43493;53.098;6.064;2023-04-02T00:22:00;8.60;;;3.35;;
57663;SDS011;43493;53.098;6.064;2023-04-02T00:24:29;7.93;;;3.25;;
57663;SDS011;43493;53.098;6.064;2023-04-02T00:26:57;7.15;;;3.25;;
57663;SDS011;43493;53.098;6.064;2023-04-02T00:29:23;9.17;;;3.10;;
57663;SDS011;43493;53.098;6.064;2023-04-02T00:31:49;8.80;;;3.07;;
57663;SDS011;43493;53.098;6.064;2023-04-02T00:34:19;7.78;;;2.85;;
57663;SDS011;43493;53.098;6.064;2023-04-02T00:36:47;8.70;;;3.15;;
57663;SDS011;43493;53.098;6.064;2023-04-02T00:39:16;10.13;;;3.30;;
57663;SDS011;43493;53.098;6.064;2023-04-02T00:41:45;8.13;;;2.80;;
57663;SDS011;43493;53.098;6.064;2023-04-02T00:44:12;7.78;;;2.90;;
57663;SDS011;43493;53.098;6.064;2023-04-02T00:46:41;10.38;;;3.28;;
57663;SDS011;43493;53.098;6.064;2023-04-02T00:52:18;10.57;;;3.03;;
57663;SDS011;43493;53.098;6.064;2023-04-02T00:54:48;5.88;;;2.83;;
57663;SDS011;43493;53.098;6.064;2023-04-02T00:57:19;8.82;;;2.85;;
57663;SDS011;43493;53.098;6.064;2023-04-02T01:00:01;6.82;;;2.83;;
57663;SDS011;43493;53.098;6.064;2023-04-02T01:02:42;6.65;;;2.58;;
57663;SDS011;43493;53.098;6.064;2023-04-02T01:05:29;9.05;;;2.60;;
57663;SDS011;43493;53.098;6.064;2023-04-02T01:16:27;10.85;;;3.15;;
57663;SDS011;43493;53.098;6.064;2023-04-02T01:24:10;6.90;;;2.65;;
57663;SDS011;43493;53.098;6.064;2023-04-02T01:29:39;9.35;;;3.05;;
57663;SDS011;43493;53.098;6.064;2023-04-02T01:32:10;8.98;;;3.00;;
57663;SDS011;43493;53.098;6.064;2023-04-02T01:34:38;7.18;;;2.95;;
57663;SDS011;43493;53.098;6.064;2023-04-02T01:42:56;9.15;;;3.00;;
57663;SDS011;43493;53.098;6.064;2023-04-02T01:45:42;6.78;;;3.03;;
57663;SDS011;43493;53.098;6.064;2023-04-02T01:48:13;8.95;;;2.95;;
57663;SDS011;43493;53.098;6.064;2023-04-02T01:50:41;8.40;;;2.85;;
57663;SDS011;43493;53.098;6.064;2023-04-02T01:53:09;8.73;;;3.22;;
57663;SDS011;43493;53.098;6.064;2023-04-02T01:55:41;9.85;;;3.20;;
57663;SDS011;43493;53.098;6.064;2023-04-02T01:58:08;7.88;;;2.80;;
57663;SDS011;43493;53.098;6.064;2023-04-02T02:00:36;8.45;;;2.83;;
57663;SDS011;43493;53.098;6.064;2023-04-02T02:03:09;7.78;;;3.13;;
57663;SDS011;43493;53.098;6.064;2023-04-02T02:05:37;5.95;;;2.28;;
57663;SDS011;43493;53.098;6.064;2023-04-02T02:08:03;6.73;;;2.40;;
57663;SDS011;43493;53.098;6.064;2023-04-02T02:10:33;7.28;;;2.70;;
57663;SDS011;43493;53.098;6.064;2023-04-02T02:13:00;6.97;;;2.92;;
57663;SDS011;43493;53.098;6.064;2023-04-02T02:15:26;6.97;;;2.40;;
57663;SDS011;43493;53.098;6.064;2023-04-02T02:17:59;8.15;;;2.10;;
57663;SDS011;43493;53.098;6.064;2023-04-02T02:20:28;9.45;;;2.65;;
57663;SDS011;43493;53.098;6.064;2023-04-02T02:22:55;8.70;;;2.10;;
57663;SDS011;43493;53.098;6.064;2023-04-02T02:25:24;8.23;;;2.55;;
57663;SDS011;43493;53.098;6.064;2023-04-02T02:30:35;6.05;;;2.25;;
57663;SDS011;43493;53.098;6.064;2023-04-02T02:35:48;9.40;;;2.28;;
57663;SDS011;43493;53.098;6.064;2023-04-02T02:41:00;6.35;;;2.35;;
57663;SDS011;43493;53.098;6.064;2023-04-02T02:46:20;6.20;;;2.83;;
57663;SDS011;43493;53.098;6.064;2023-04-02T02:48:48;7.13;;;2.22;;
57663;SDS011;43493;53.098;6.064;2023-04-02T02:51:18;6.95;;;2.28;;
57663;SDS011;43493;53.098;6.064;2023-04-02T02:53:50;6.80;;;1.90;;
57663;SDS011;43493;53.098;6.064;2023-04-02T02:56:19;3.90;;;1.63;;
57663;SDS011;43493;53.098;6.064;2023-04-02T02:58:47;5.80;;;2.17;;
57663;SDS011;43493;53.098;6.064;2023-04-02T03:01:16;7.43;;;2.28;;
57663;SDS011;43493;53.098;6.064;2023-04-02T03:03:42;5.10;;;1.88;;
57663;SDS011;43493;53.098;6.064;2023-04-02T03:06:13;5.93;;;2.33;;
57663;SDS011;43493;53.098;6.064;2023-04-02T03:16:44;5.38;;;2.05;;
57663;SDS011;43493;53.098;6.064;2023-04-02T03:19:32;6.82;;;2.40;;
57663;SDS011;43493;53.098;6.064;2023-04-02T03:27:21;8.07;;;2.17;;
57663;SDS011;43493;53.098;6.064;2023-04-02T03:29:59;6.18;;;2.13;;
57663;SDS011;43493;53.098;6.064;2023-04-02T03:32:51;5.78;;;2.88;;
57663;SDS011;43493;53.098;6.064;2023-04-02T03:35:25;9.93;;;2.53;;
57663;SDS011;43493;53.098;6.064;2023-04-02T03:38:27;4.28;;;1.70;;
57663;SDS011;43493;53.098;6.064;2023-04-02T03:41:06;8.13;;;1.90;;
57663;SDS011;43493;53.098;6.064;2023-04-02T03:43:41;6.32;;;1.83;;
57663;SDS011;43493;53.098;6.064;2023-04-02T03:46:25;5.10;;;2.00;;
57663;SDS011;43493;53.098;6.064;2023-04-02T03:49:10;9.68;;;2.15;;
57663;SDS011;43493;53.098;6.064;2023-04-02T03:51:54;9.07;;;2.20;;
57663;SDS011;43493;53.098;6.064;2023-04-02T03:54:28;7.93;;;2.13;;
57663;SDS011;43493;53.098;6.064;2023-04-02T03:56:55;5.18;;;1.90;;
57663;SDS011;43493;53.098;6.064;2023-04-02T04:04:33;5.93;;;1.90;;
57663;SDS011;43493;53.098;6.064;2023-04-02T04:07:03;6.57;;;1.85;;
57663;SDS011;43493;53.098;6.064;2023-04-02T04:09:36;7.75;;;2.40;;
57663;SDS011;43493;53.098;6.064;2023-04-02T04:14:39;10.30;;;2.75;;
57663;SDS011;43493;53.098;6.064;2023-04-02T04:20:12;6.03;;;1.65;;
57663;SDS011;43493;53.098;6.064;2023-04-02T04:22:48;6.13;;;2.00;;
57663;SDS011;43493;53.098;6.064;2023-04-02T04:25:26;9.20;;;2.78;;
57663;SDS011;43493;53.098;6.064;2023-04-02T04:33:40;8.50;;;2.10;;
57663;SDS011;43493;53.098;6.064;2023-04-02T04:36:43;8.13;;;1.67;;
57663;SDS011;43493;53.098;6.064;2023-04-02T04:39:07;9.10;;;2.28;;
57663;SDS011;43493;53.098;6.064;2023-04-02T04:46:43;7.82;;;2.20;;
57663;SDS011;43493;53.098;6.064;2023-04-02T04:49:20;8.00;;;1.92;;
57663;SDS011;43493;53.098;6.064;2023-04-02T04:52:19;6.28;;;2.08;;
57663;SDS011;43493;53.098;6.064;2023-04-02T04:54:45;8.35;;;2.78;;
57663;SDS011;43493;53.098;6.064;2023-04-02T04:57:24;6.63;;;2.65;;
57663;SDS011;43493;53.098;6.064;2023-04-02T05:02:37;12.23;;;2.38;;
57663;SDS011;43493;53.098;6.064;2023-04-02T05:05:17;7.25;;;2.00;;
57663;SDS011;43493;53.098;6.064;2023-04-02T05:07:55;7.05;;;1.90;;
57663;SDS011;43493;53.098;6.064;2023-04-02T05:13:22;8.25;;;2.10;;
57663;SDS011;43493;53.098;6.064;2023-04-02T05:26:52;4.97;;;2.03;;
57663;SDS011;43493;53.098;6.064;2023-04-02T05:29:33;8.07;;;1.75;;
57663;SDS011;43493;53.098;6.064;2023-04-02T05:32:12;8.60;;;2.00;;
57663;SDS011;43493;53.098;6.064;2023-04-02T05:34:45;8.63;;;1.92;;
57663;SDS011;43493;53.098;6.064;2023-04-02T05:37:15;6.45;;;1.80;;
57663;SDS011;43493;53.098;6.064;2023-04-02T05:39:51;6.10;;;2.08;;
57663;SDS011;43493;53.098;6.064;2023-04-02T05:42:23;9.40;;;2.10;;
57663;SDS011;43493;53.098;6.064;2023-04-02T05:45:12;14.27;;;2.40;;
57663;SDS011;43493;53.098;6.064;2023-04-02T05:47:40;9.50;;;2.10;;
57663;SDS011;43493;53.098;6.064;2023-04-02T05:52:47;6.07;;;2.23;;
57663;SDS011;43493;53.098;6.064;2023-04-02T05:57:46;5.70;;;2.10;;
57663;SDS011;43493;53.098;6.064;2023-04-02T06:05:55;7.07;;;2.00;;
57663;SDS011;43493;53.098;6.064;2023-04-02T06:08:28;4.57;;;1.58;;
57663;SDS011;43493;53.098;6.064;2023-04-02T06:11:09;10.23;;;1.92;;
57663;SDS011;43493;53.098;6.064;2023-04-02T06:13:44;8.50;;;1.95;;
57663;SDS011;43493;53.098;6.064;2023-04-02T06:16:13;4.70;;;1.50;;
57663;SDS011;43493;53.098;6.064;2023-04-02T06:18:40;5.78;;;1.80;;
57663;SDS011;43493;53.098;6.064;2023-04-02T06:21:08;7.10;;;1.88;;
57663;SDS011;43493;53.098;6.064;2023-04-02T06:32:05;8.48;;;2.63;;
57663;SDS011;43493;53.098;6.064;2023-04-02T06:34:33;8.77;;;1.80;;
57663;SDS011;43493;53.098;6.064;2023-04-02T06:37:03;4.13;;;1.65;;
57663;SDS011;43493;53.098;6.064;2023-04-02T06:39:45;8.50;;;1.63;;
57663;SDS011;43493;53.098;6.064;2023-04-02T06:42:21;8.10;;;2.10;;
57663;SDS011;43493;53.098;6.064;2023-04-02T06:44:54;7.07;;;1.27;;
57663;SDS011;43493;53.098;6.064;2023-04-02T06:49:48;5.20;;;1.63;;
57663;SDS011;43493;53.098;6.064;2023-04-02T06:58:09;5.37;;;1.70;;
57663;SDS011;43493;53.098;6.064;2023-04-02T07:00:36;5.73;;;1.90;;
57663;SDS011;43493;53.098;6.064;2023-04-02T07:03:06;5.90;;;2.53;;
57663;SDS011;43493;53.098;6.064;2023-04-02T07:05:45;7.83;;;1.70;;
57663;SDS011;43493;53.098;6.064;2023-04-02T07:08:11;5.33;;;2.00;;
57663;SDS011;43493;53.098;6.064;2023-04-02T07:10:37;4.37;;;1.47;;
57663;SDS011;43493;53.098;6.064;2023-04-02T07:13:02;9.53;;;1.80;;
57663;SDS011;43493;53.098;6.064;2023-04-02T07:15:29;6.87;;;2.13;;
57663;SDS011;43493;53.098;6.064;2023-04-02T07:17:56;5.90;;;1.67;;
57663;SDS011;43493;53.098;6.064;2023-04-02T07:20:33;4.53;;;1.50;;
57663;SDS011;43493;53.098;6.064;2023-04-02T07:23:02;5.23;;;1.33;;
57663;SDS011;43493;53.098;6.064;2023-04-02T07:25:28;8.40;;;2.10;;
57663;SDS011;43493;53.098;6.064;2023-04-02T07:27:54;6.10;;;1.80;;
57663;SDS011;43493;53.098;6.064;2023-04-02T07:30:21;8.20;;;1.83;;
57663;SDS011;43493;53.098;6.064;2023-04-02T07:32:47;8.07;;;1.50;;
57663;SDS011;43493;53.098;6.064;2023-04-02T07:35:13;6.60;;;1.53;;
57663;SDS011;43493;53.098;6.064;2023-04-02T07:37:39;7.30;;;1.40;;
57663;SDS011;43493;53.098;6.064;2023-04-02T07:40:05;5.50;;;1.33;;
57663;SDS011;43493;53.098;6.064;2023-04-02T07:42:39;4.00;;;1.35;;
57663;SDS011;43493;53.098;6.064;2023-04-02T07:45:05;4.00;;;1.20;;
57663;SDS011;43493;53.098;6.064;2023-04-02T07:47:31;4.93;;;1.93;;
57663;SDS011;43493;53.098;6.064;2023-04-02T07:49:57;5.50;;;1.40;;
57663;SDS011;43493;53.098;6.064;2023-04-02T07:52:22;6.57;;;1.60;;
57663;SDS011;43493;53.098;6.064;2023-04-02T07:54:48;5.17;;;2.00;;
57663;SDS011;43493;53.098;6.064;2023-04-02T07:57:14;7.43;;;1.80;;
57663;SDS011;43493;53.098;6.064;2023-04-02T07:59:40;6.60;;;2.00;;
57663;SDS011;43493;53.098;6.064;2023-04-02T08:02:05;3.53;;;1.50;;
57663;SDS011;43493;53.098;6.064;2023-04-02T08:04:38;5.07;;;1.53;;
57663;SDS011;43493;53.098;6.064;2023-04-02T08:07:04;5.27;;;1.47;;
57663;SDS011;43493;53.098;6.064;2023-04-02T08:09:29;4.43;;;1.23;;
57663;SDS011;43493;53.098;6.064;2023-04-02T08:11:55;7.47;;;1.40;;
57663;SDS011;43493;53.098;6.064;2023-04-02T08:14:21;4.43;;;1.50;;
57663;SDS011;43493;53.098;6.064;2023-04-02T08:16:48;5.87;;;1.47;;
57663;SDS011;43493;53.098;6.064;2023-04-02T08:19:15;5.23;;;1.53;;
57663;SDS011;43493;53.098;6.064;2023-04-02T08:21:41;7.17;;;1.50;;
57663;SDS011;43493;53.098;6.064;2023-04-02T08:24:07;3.27;;;1.17;;
57663;SDS011;43493;53.098;6.064;2023-04-02T08:26:33;4.80;;;1.13;;
57663;SDS011;43493;53.098;6.064;2023-04-02T08:28:59;5.13;;;1.23;;
57663;SDS011;43493;53.098;6.064;2023-04-02T08:31:24;7.40;;;1.67;;
57663;SDS011;43493;53.098;6.064;2023-04-02T08:33:50;4.20;;;1.40;;
57663;SDS011;43493;53.098;6.064;2023-04-02T08:36:18;5.57;;;1.50;;
57663;SDS011;43493;53.098;6.064;2023-04-02T08:38:48;4.80;;;1.50;;
57663;SDS011;43493;53.098;6.064;2023-04-02T08:41:25;5.03;;;1.73;;
57663;SDS011;43493;53.098;6.064;2023-04-02T08:44:17;9.15;;;3.17;;
57663;SDS011;43493;53.098;6.064;2023-04-02T08:49:14;6.18;;;1.40;;
57663;SDS011;43493;53.098;6.064;2023-04-02T08:51:43;6.47;;;1.70;;
57663;SDS011;43493;53.098;6.064;2023-04-02T08:54:20;6.18;;;1.70;;
57663;SDS011;43493;53.098;6.064;2023-04-02T08:56:55;5.65;;;1.75;;
57663;SDS011;43493;53.098;6.064;2023-04-02T09:04:20;6.10;;;1.87;;
57663;SDS011;43493;53.098;6.064;2023-04-02T09:06:49;5.60;;;1.65;;
57663;SDS011;43493;53.098;6.064;2023-04-02T09:09:17;6.03;;;1.50;;
57663;SDS011;43493;53.098;6.064;2023-04-02T09:11:51;5.00;;;1.35;;
57663;SDS011;43493;53.098;6.064;2023-04-02T09:14:24;6.40;;;1.92;;
57663;SDS011;43493;53.098;6.064;2023-04-02T09:17:02;5.90;;;1.80;;
57663;SDS011;43493;53.098;6.064;2023-04-02T09:19:32;3.92;;;1.15;;
57663;SDS011;43493;53.098;6.064;2023-04-02T09:22:22;4.05;;;1.35;;
57663;SDS011;43493;53.098;6.064;2023-04-02T09:24:56;4.97;;;1.73;;
57663;SDS011;43493;53.098;6.064;2023-04-02T09:27:28;5.70;;;1.48;;
57663;SDS011;43493;53.098;6.064;2023-04-02T09:30:09;7.05;;;1.83;;
57663;SDS011;43493;53.098;6.064;2023-04-02T09:32:57;4.40;;;1.23;;
57663;SDS011;43493;53.098;6.064;2023-04-02T09:35:29;5.55;;;1.65;;
57663;SDS011;43493;53.098;6.064;2023-04-02T09:43:19;9.13;;;1.63;;
57663;SDS011;43493;53.098;6.064;2023-04-02T09:45:57;5.75;;;1.40;;
57663;SDS011;43493;53.098;6.064;2023-04-02T09:51:14;5.93;;;1.50;;
57663;SDS011;43493;53.098;6.064;2023-04-02T09:56:26;3.88;;;1.27;;
57663;SDS011;43493;53.098;6.064;2023-04-02T10:01:46;4.20;;;1.53;;
57663;SDS011;43493;53.098;6.064;2023-04-02T10:04:33;6.03;;;1.30;;
57663;SDS011;43493;53.098;6.064;2023-04-02T10:07:28;4.10;;;1.30;;
57663;SDS011;43493;53.098;6.064;2023-04-02T10:09:57;7.27;;;1.57;;
57663;SDS011;43493;53.098;6.064;2023-04-02T10:12:25;6.63;;;1.17;;
57663;SDS011;43493;53.098;6.064;2023-04-02T10:14:53;3.97;;;1.13;;
57663;SDS011;43493;53.098;6.064;2023-04-02T10:17:23;4.03;;;1.40;;
57663;SDS011;43493;53.098;6.064;2023-04-02T10:19:57;4.80;;;1.37;;
57663;SDS011;43493;53.098;6.064;2023-04-02T10:22:35;6.05;;;1.40;;
57663;SDS011;43493;53.098;6.064;2023-04-02T10:25:01;4.60;;;1.63;;
57663;SDS011;43493;53.098;6.064;2023-04-02T10:30:08;5.93;;;1.73;;
57663;SDS011;43493;53.098;6.064;2023-04-02T10:32:59;4.37;;;1.33;;
57663;SDS011;43493;53.098;6.064;2023-04-02T10:35:42;6.05;;;1.45;;
57663;SDS011;43493;53.098;6.064;2023-04-02T10:38:28;5.30;;;1.08;;
57663;SDS011;43493;53.098;6.064;2023-04-02T10:52:02;2.00;;;0.87;;
57663;SDS011;43493;53.098;6.064;2023-04-02T10:55:15;4.67;;;1.37;;
57663;SDS011;43493;53.098;6.064;2023-04-02T10:57:45;6.67;;;1.47;;
57663;SDS011;43493;53.098;6.064;2023-04-02T11:05:44;2.67;;;1.00;;
57663;SDS011;43493;53.098;6.064;2023-04-02T11:08:19;5.53;;;1.10;;
57663;SDS011;43493;53.098;6.064;2023-04-02T11:11:00;4.35;;;1.10;;
57663;SDS011;43493;53.098;6.064;2023-04-02T11:15:57;3.00;;;1.17;;
57663;SDS011;43493;53.098;6.064;2023-04-02T11:20:55;3.13;;;0.97;;
57663;SDS011;43493;53.098;6.064;2023-04-02T11:23:25;2.10;;;0.90;;
57663;SDS011;43493;53.098;6.064;2023-04-02T11:26:11;3.20;;;0.93;;
57663;SDS011;43493;53.098;6.064;2023-04-02T11:29:00;4.07;;;1.40;;
57663;SDS011;43493;53.098;6.064;2023-04-02T11:31:36;3.60;;;1.20;;
57663;SDS011;43493;53.098;6.064;2023-04-02T11:34:02;3.73;;;1.20;;
57663;SDS011;43493;53.098;6.064;2023-04-02T11:42:32;2.27;;;1.00;;
57663;SDS011;43493;53.098;6.064;2023-04-02T11:45:00;3.43;;;1.50;;
57663;SDS011;43493;53.098;6.064;2023-04-02T11:50:33;4.50;;;1.27;;
57663;SDS011;43493;53.098;6.064;2023-04-02T11:53:21;2.90;;;0.90;;
57663;SDS011;43493;53.098;6.064;2023-04-02T11:56:16;2.63;;;0.98;;
57663;SDS011;43493;53.098;6.064;2023-04-02T12:07:10;4.20;;;1.00;;
57663;SDS011;43493;53.098;6.064;2023-04-02T12:09:46;6.47;;;1.37;;
57663;SDS011;43493;53.098;6.064;2023-04-02T12:14:55;3.03;;;1.20;;
57663;SDS011;43493;53.098;6.064;2023-04-02T12:17:27;4.53;;;1.20;;
57663;SDS011;43493;53.098;6.064;2023-04-02T12:20:00;4.17;;;1.20;;
57663;SDS011;43493;53.098;6.064;2023-04-02T12:22:28;4.07;;;1.00;;
57663;SDS011;43493;53.098;6.064;2023-04-02T12:25:00;5.20;;;1.90;;
57663;SDS011;43493;53.098;6.064;2023-04-02T12:27:31;5.63;;;1.17;;
57663;SDS011;43493;53.098;6.064;2023-04-02T12:30:18;5.50;;;1.70;;
57663;SDS011;43493;53.098;6.064;2023-04-02T12:32:46;3.53;;;1.00;;
57663;SDS011;43493;53.098;6.064;2023-04-02T12:35:27;4.37;;;1.10;;
57663;SDS011;43493;53.098;6.064;2023-04-02T12:37:56;3.17;;;1.00;;
57663;SDS011;43493;53.098;6.064;2023-04-02T12:40:22;5.17;;;1.27;;
57663;SDS011;43493;53.098;6.064;2023-04-02T12:42:48;5.40;;;1.10;;
57663;SDS011;43493;53.098;6.064;2023-04-02T12:45:21;5.17;;;0.83;;
57663;SDS011;43493;53.098;6.064;2023-04-02T12:47:51;4.40;;;1.30;;
57663;SDS011;43493;53.098;6.064;2023-04-02T12:50:17;3.17;;;1.10;;
57663;SDS011;43493;53.098;6.064;2023-04-02T12:52:45;5.40;;;1.10;;
57663;SDS011;43493;53.098;6.064;2023-04-02T12:55:16;5.47;;;1.20;;
57663;SDS011;43493;53.098;6.064;2023-04-02T12:57:48;2.60;;;0.90;;
57663;SDS011;43493;53.098;6.064;2023-04-02T13:02:46;4.43;;;1.00;;
57663;SDS011;43493;53.098;6.064;2023-04-02T13:05:57;3.40;;;1.00;;
57663;SDS011;43493;53.098;6.064;2023-04-02T13:08:14;4.93;;;1.17;;
57663;SDS011;43493;53.098;6.064;2023-04-02T13:10:46;1.87;;;0.80;;
57663;SDS011;43493;53.098;6.064;2023-04-02T13:13:19;7.47;;;1.63;;
57663;SDS011;43493;53.098;6.064;2023-04-02T13:16:36;4.50;;;1.23;;
57663;SDS011;43493;53.098;6.064;2023-04-02T13:18:37;2.40;;;0.90;;
57663;SDS011;43493;53.098;6.064;2023-04-02T13:21:04;3.33;;;0.90;;
57663;SDS011;43493;53.098;6.064;2023-04-02T13:23:32;3.93;;;1.30;;
57663;SDS011;43493;53.098;6.064;2023-04-02T13:26:10;2.67;;;0.87;;
57663;SDS011;43493;53.098;6.064;2023-04-02T13:28:57;4.47;;;1.67;;
57663;SDS011;43493;53.098;6.064;2023-04-02T13:31:28;4.07;;;1.23;;
57663;SDS011;43493;53.098;6.064;2023-04-02T13:33:54;3.00;;;0.90;;
57663;SDS011;43493;53.098;6.064;2023-04-02T13:36:20;3.70;;;1.03;;
57663;SDS011;43493;53.098;6.064;2023-04-02T13:38:46;3.20;;;1.10;;
57663;SDS011;43493;53.098;6.064;2023-04-02T13:41:54;3.07;;;1.00;;
57663;SDS011;43493;53.098;6.064;2023-04-02T13:44:04;2.10;;;0.60;;
57663;SDS011;43493;53.098;6.064;2023-04-02T13:46:31;2.87;;;1.03;;
57663;SDS011;43493;53.098;6.064;2023-04-02T13:48:58;3.00;;;1.23;;
57663;SDS011;43493;53.098;6.064;2023-04-02T13:51:37;3.03;;;1.40;;
57663;SDS011;43493;53.098;6.064;2023-04-02T13:54:07;3.43;;;1.30;;
57663;SDS011;43493;53.098;6.064;2023-04-02T13:56:39;4.50;;;1.10;;
57663;SDS011;43493;53.098;6.064;2023-04-02T13:59:05;5.20;;;1.70;;
57663;SDS011;43493;53.098;6.064;2023-04-02T14:01:31;4.57;;;1.00;;
57663;SDS011;43493;53.098;6.064;2023-04-02T14:03:57;3.67;;;1.30;;
57663;SDS011;43493;53.098;6.064;2023-04-02T14:28:27;4.77;;;1.13;;
57663;SDS011;43493;53.098;6.064;2023-04-02T14:45:08;4.57;;;1.07;;
57663;SDS011;43493;53.098;6.064;2023-04-02T14:47:46;3.07;;;1.00;;
57663;SDS011;43493;53.098;6.064;2023-04-02T14:50:39;4.17;;;1.50;;
57663;SDS011;43493;53.098;6.064;2023-04-02T14:53:13;3.30;;;1.20;;
57663;SDS011;43493;53.098;6.064;2023-04-02T14:55:47;3.07;;;1.00;;
57663;SDS011;43493;53.098;6.064;2023-04-02T14:58:22;3.90;;;1.17;;
57663;SDS011;43493;53.098;6.064;2023-04-02T15:01:35;3.13;;;1.00;;
57663;SDS011;43493;53.098;6.064;2023-04-02T15:06:14;5.57;;;1.40;;
57663;SDS011;43493;53.098;6.064;2023-04-02T15:08:46;4.83;;;1.30;;
57663;SDS011;43493;53.098;6.064;2023-04-02T15:11:25;4.10;;;1.43;;
57663;SDS011;43493;53.098;6.064;2023-04-02T15:17:05;4.33;;;1.30;;
57663;SDS011;43493;53.098;6.064;2023-04-02T15:19:33;4.90;;;1.23;;
57663;SDS011;43493;53.098;6.064;2023-04-02T15:22:08;2.10;;;1.00;;
57663;SDS011;43493;53.098;6.064;2023-04-02T15:25:19;4.87;;;1.10;;
57663;SDS011;43493;53.098;6.064;2023-04-02T15:28:18;3.47;;;1.40;;
57663;SDS011;43493;53.098;6.064;2023-04-02T15:30:55;4.00;;;1.60;;
57663;SDS011;43493;53.098;6.064;2023-04-02T15:33:40;6.20;;;1.30;;
57663;SDS011;43493;53.098;6.064;2023-04-02T15:38:43;6.53;;;1.47;;
57663;SDS011;43493;53.098;6.064;2023-04-02T15:46:36;4.87;;;1.30;;
57663;SDS011;43493;53.098;6.064;2023-04-02T15:55:01;4.17;;;1.23;;
57663;SDS011;43493;53.098;6.064;2023-04-02T15:58:09;4.67;;;1.10;;
57663;SDS011;43493;53.098;6.064;2023-04-02T16:03:29;4.70;;;1.13;;
57663;SDS011;43493;53.098;6.064;2023-04-02T16:06:19;2.87;;;1.00;;
57663;SDS011;43493;53.098;6.064;2023-04-02T16:11:27;7.43;;;1.50;;
57663;SDS011;43493;53.098;6.064;2023-04-02T16:13:57;8.23;;;1.53;;
57663;SDS011;43493;53.098;6.064;2023-04-02T16:16:35;3.13;;;1.07;;
57663;SDS011;43493;53.098;6.064;2023-04-02T16:25:15;4.63;;;1.00;;
57663;SDS011;43493;53.098;6.064;2023-04-02T16:30:40;5.87;;;1.20;;
57663;SDS011;43493;53.098;6.064;2023-04-02T16:43:54;5.07;;;0.90;;
57663;SDS011;43493;53.098;6.064;2023-04-02T16:49:54;4.53;;;1.27;;
57663;SDS011;43493;53.098;6.064;2023-04-02T16:57:34;2.60;;;1.20;;
57663;SDS011;43493;53.098;6.064;2023-04-02T17:00:26;4.93;;;1.40;;
57663;SDS011;43493;53.098;6.064;2023-04-02T17:03:23;2.83;;;0.87;;
57663;SDS011;43493;53.098;6.064;2023-04-02T17:07:01;3.17;;;1.20;;
57663;SDS011;43493;53.098;6.064;2023-04-02T17:17:27;5.40;;;2.20;;
57663;SDS011;43493;53.098;6.064;2023-04-02T17:19:57;5.10;;;1.03;;
57663;SDS011;43493;53.098;6.064;2023-04-02T17:22:24;3.50;;;0.97;;
57663;SDS011;43493;53.098;6.064;2023-04-02T17:25:00;3.27;;;1.30;;
57663;SDS011;43493;53.098;6.064;2023-04-02T17:27:32;4.50;;;0.97;;
57663;SDS011;43493;53.098;6.064;2023-04-02T17:30:44;5.87;;;1.13;;
57663;SDS011;43493;53.098;6.064;2023-04-02T17:32:59;6.03;;;1.20;;
57663;SDS011;43493;53.098;6.064;2023-04-02T17:46:30;3.70;;;1.03;;
57663;SDS011;43493;53.098;6.064;2023-04-02T17:51:44;4.47;;;1.37;;
57663;SDS011;43493;53.098;6.064;2023-04-02T17:54:22;3.30;;;1.30;;
57663;SDS011;43493;53.098;6.064;2023-04-02T18:07:58;7.38;;;2.20;;
57663;SDS011;43493;53.098;6.064;2023-04-02T18:13:06;5.68;;;1.88;;
57663;SDS011;43493;53.098;6.064;2023-04-02T18:18:43;6.95;;;2.10;;
57663;SDS011;43493;53.098;6.064;2023-04-02T18:21:33;5.83;;;1.40;;
57663;SDS011;43493;53.098;6.064;2023-04-02T18:27:24;8.25;;;1.50;;
57663;SDS011;43493;53.098;6.064;2023-04-02T18:38:45;10.50;;;2.30;;
57663;SDS011;43493;53.098;6.064;2023-04-02T18:46:49;5.57;;;1.70;;
57663;SDS011;43493;53.098;6.064;2023-04-02T18:51:43;6.10;;;2.13;;
57663;SDS011;43493;53.098;6.064;2023-04-02T18:56:59;5.90;;;2.00;;
57663;SDS011;43493;53.098;6.064;2023-04-02T19:02:29;8.48;;;3.10;;
57663;SDS011;43493;53.098;6.064;2023-04-02T19:05:02;5.22;;;1.73;;
57663;SDS011;43493;53.098;6.064;2023-04-02T19:07:51;6.22;;;2.22;;
57663;SDS011;43493;53.098;6.064;2023-04-02T19:10:33;8.90;;;2.90;;
57663;SDS011;43493;53.098;6.064;2023-04-02T19:13:05;5.90;;;2.45;;
57663;SDS011;43493;53.098;6.064;2023-04-02T19:30:03;5.93;;;1.80;;
57663;SDS011;43493;53.098;6.064;2023-04-02T19:35:25;4.60;;;1.65;;
57663;SDS011;43493;53.098;6.064;2023-04-02T19:43:36;4.50;;;1.88;;
57663;SDS011;43493;53.098;6.064;2023-04-02T19:46:02;4.50;;;1.70;;
57663;SDS011;43493;53.098;6.064;2023-04-02T19:48:40;5.43;;;1.50;;
57663;SDS011;43493;53.098;6.064;2023-04-02T19:51:14;5.07;;;1.70;;
57663;SDS011;43493;53.098;6.064;2023-04-02T19:53:40;4.27;;;1.57;;
57663;SDS011;43493;53.098;6.064;2023-04-02T19:56:06;4.90;;;1.93;;
57663;SDS011;43493;53.098;6.064;2023-04-02T19:58:32;4.07;;;1.40;;
57663;SDS011;43493;53.098;6.064;2023-04-02T20:00:59;4.72;;;1.92;;
57663;SDS011;43493;53.098;6.064;2023-04-02T20:03:25;3.58;;;1.65;;
57663;SDS011;43493;53.098;6.064;2023-04-02T20:05:51;6.77;;;1.90;;
57663;SDS011;43493;53.098;6.064;2023-04-02T20:08:17;3.97;;;1.27;;
57663;SDS011;43493;53.098;6.064;2023-04-02T20:10:44;4.72;;;1.65;;
57663;SDS011;43493;53.098;6.064;2023-04-02T20:13:10;4.38;;;1.90;;
57663;SDS011;43493;53.098;6.064;2023-04-02T20:15:35;6.97;;;2.77;;
57663;SDS011;43493;53.098;6.064;2023-04-02T20:18:02;7.60;;;2.10;;
57663;SDS011;43493;53.098;6.064;2023-04-02T20:20:28;5.10;;;1.50;;
57663;SDS011;43493;53.098;6.064;2023-04-02T20:22:54;4.63;;;1.47;;
57663;SDS011;43493;53.098;6.064;2023-04-02T20:25:20;3.53;;;1.37;;
57663;SDS011;43493;53.098;6.064;2023-04-02T20:27:45;4.30;;;1.40;;
57663;SDS011;43493;53.098;6.064;2023-04-02T20:30:11;5.57;;;1.73;;
57663;SDS011;43493;53.098;6.064;2023-04-02T20:32:39;3.10;;;1.20;;
57663;SDS011;43493;53.098;6.064;2023-04-02T20:35:05;5.40;;;1.57;;
57663;SDS011;43493;53.098;6.064;2023-04-02T20:37:31;6.27;;;1.50;;
57663;SDS011;43493;53.098;6.064;2023-04-02T20:39:57;4.50;;;1.70;;
57663;SDS011;43493;53.098;6.064;2023-04-02T20:42:23;5.00;;;1.85;;
57663;SDS011;43493;53.098;6.064;2023-04-02T20:44:49;6.20;;;1.67;;
57663;SDS011;43493;53.098;6.064;2023-04-02T20:47:16;4.93;;;1.58;;
57663;SDS011;43493;53.098;6.064;2023-04-02T20:49:41;5.60;;;1.90;;
57663;SDS011;43493;53.098;6.064;2023-04-02T20:52:07;9.03;;;2.00;;
57663;SDS011;43493;53.098;6.064;2023-04-02T20:54:33;3.37;;;1.50;;
57663;SDS011;43493;53.098;6.064;2023-04-02T20:56:59;5.85;;;1.95;;
57663;SDS011;43493;53.098;6.064;2023-04-02T20:59:25;5.57;;;1.90;;
57663;SDS011;43493;53.098;6.064;2023-04-02T21:01:51;5.63;;;2.20;;
57663;SDS011;43493;53.098;6.064;2023-04-02T21:04:17;7.10;;;2.40;;
57663;SDS011;43493;53.098;6.064;2023-04-02T21:06:42;6.40;;;2.57;;
57663;SDS011;43493;53.098;6.064;2023-04-02T21:09:15;10.97;;;3.63;;
57663;SDS011;43493;53.098;6.064;2023-04-02T21:11:42;8.32;;;3.30;;
57663;SDS011;43493;53.098;6.064;2023-04-02T21:14:08;5.70;;;2.10;;
57663;SDS011;43493;53.098;6.064;2023-04-02T21:16:34;5.20;;;1.80;;
57663;SDS011;43493;53.098;6.064;2023-04-02T21:19:04;5.63;;;2.53;;
57663;SDS011;43493;53.098;6.064;2023-04-02T21:21:32;5.68;;;2.22;;
57663;SDS011;43493;53.098;6.064;2023-04-02T21:23:59;3.95;;;1.98;;
57663;SDS011;43493;53.098;6.064;2023-04-02T21:26:28;7.70;;;2.05;;